createdAt,value
2018-07-10T00:00:53.439Z,15.60
2018-07-10T00:06:07.527Z,15.70
2018-07-10T00:11:32.394Z,15.80
2018-07-10T00:16:35.073Z,15.90
2018-07-10T00:21:37.702Z,16.00
2018-07-10T00:26:40.436Z,16.10
2018-07-10T00:31:43.061Z,16.10
2018-07-10T00:36:45.731Z,16.00
2018-07-10T00:41:49.202Z,15.80
2018-07-10T00:46:51.941Z,15.70
2018-07-10T00:51:54.722Z,15.60
2018-07-10T00:56:57.479Z,15.60
2018-07-10T01:02:00.322Z,15.70
2018-07-10T01:07:03.082Z,15.80
2018-07-10T01:12:05.788Z,15.80
2018-07-10T01:17:08.526Z,15.80
2018-07-10T01:22:11.406Z,15.80
2018-07-10T01:27:14.118Z,15.80
2018-07-10T01:32:16.998Z,15.90
2018-07-10T01:37:19.742Z,16.00
2018-07-10T01:42:22.414Z,16.00
2018-07-10T01:47:25.119Z,15.90
2018-07-10T01:52:28.782Z,15.80
2018-07-10T01:57:32.030Z,15.80
2018-07-10T02:02:34.709Z,15.70
2018-07-10T02:12:40.042Z,15.50
2018-07-10T02:17:42.759Z,15.50
2018-07-10T02:22:46.142Z,15.50
2018-07-10T02:27:48.922Z,15.40
2018-07-10T02:32:51.619Z,15.30
2018-07-10T02:42:56.940Z,15.10
2018-07-10T02:47:59.933Z,15.10
2018-07-10T02:53:02.933Z,14.90
2018-07-10T02:58:05.827Z,14.70
2018-07-10T03:03:09.531Z,14.60
2018-07-10T03:08:12.248Z,14.60
2018-07-10T03:13:16.086Z,14.60
2018-07-10T03:18:18.804Z,14.60
2018-07-10T03:23:21.557Z,14.60
2018-07-10T03:28:24.373Z,14.60
2018-07-10T03:33:27.188Z,14.60
2018-07-10T03:38:29.883Z,14.60
2018-07-10T03:43:32.599Z,14.70
2018-07-10T03:48:35.370Z,14.80
2018-07-10T03:53:38.238Z,14.90
2018-07-10T03:58:40.994Z,14.90
2018-07-10T04:03:44.016Z,14.90
2018-07-10T04:08:46.734Z,15.00
2018-07-10T04:13:49.604Z,15.00
2018-07-10T04:18:52.331Z,15.10
2018-07-10T04:24:00.245Z,15.20
2018-07-10T04:29:15.582Z,15.40
2018-07-10T04:34:18.442Z,15.60
2018-07-10T04:39:21.150Z,15.90
2018-07-10T04:44:30.211Z,16.10
2018-07-10T04:49:42.379Z,16.40
2018-07-10T04:55:05.734Z,16.60
2018-07-10T05:00:08.456Z,16.80
2018-07-10T05:05:11.302Z,17.00
2018-07-10T05:10:14.207Z,17.20
2018-07-10T05:15:16.932Z,17.40
2018-07-10T05:20:20.732Z,17.40
2018-07-10T05:25:23.501Z,17.50
2018-07-10T05:30:26.250Z,17.60
2018-07-10T05:35:28.982Z,17.70
2018-07-10T05:40:31.699Z,17.80
2018-07-10T05:45:34.432Z,17.90
2018-07-10T05:50:38.231Z,18.00
2018-07-10T05:55:44.418Z,18.10
2018-07-10T06:05:49.821Z,18.30
2018-07-10T06:10:52.538Z,18.50
2018-07-10T06:15:55.903Z,18.70
2018-07-10T06:20:58.583Z,18.90
2018-07-10T06:26:02.131Z,19.20
2018-07-10T06:31:10.767Z,19.40
2018-07-10T06:36:22.974Z,19.50
2018-07-10T06:41:26.112Z,19.50
2018-07-10T06:46:38.199Z,19.70
2018-07-10T06:51:40.939Z,19.90
2018-07-10T06:56:45.584Z,19.80
2018-07-10T07:01:48.351Z,19.90
2018-07-10T07:06:51.558Z,19.90
2018-07-10T07:11:54.240Z,19.90
2018-07-10T07:22:03.274Z,20.20
2018-07-10T07:27:05.988Z,20.50
2018-07-10T07:32:08.686Z,20.30
2018-07-10T07:37:11.379Z,20.60
2018-07-10T07:42:15.455Z,20.30
2018-07-10T07:47:20.798Z,20.30
2018-07-10T07:52:26.595Z,20.30
2018-07-10T07:57:29.306Z,20.30
2018-07-10T08:02:32.106Z,20.20
2018-07-10T08:07:34.818Z,20.30
2018-07-10T08:12:37.550Z,20.90
2018-07-10T08:17:40.386Z,21.30
2018-07-10T08:22:43.174Z,21.80
2018-07-10T08:27:45.915Z,21.90
2018-07-10T08:32:49.390Z,22.70
2018-07-10T08:42:54.707Z,23.30
2018-07-10T08:47:58.220Z,22.50
2018-07-10T08:53:00.939Z,22.30
2018-07-10T08:58:03.691Z,21.90
2018-07-10T09:03:06.448Z,21.50
2018-07-10T09:08:09.279Z,21.30
2018-07-10T09:13:12.141Z,21.00
2018-07-10T09:18:15.003Z,20.50
2018-07-10T09:28:21.693Z,20.90
2018-07-10T09:33:24.464Z,21.60
2018-07-10T09:38:27.188Z,22.70
2018-07-10T09:43:29.935Z,23.00
2018-07-10T09:48:32.793Z,23.60
2018-07-10T09:53:35.530Z,24.00
2018-07-10T09:58:38.275Z,24.30
2018-07-10T10:03:41.019Z,25.00
2018-07-10T10:08:43.712Z,25.30
2018-07-10T10:18:50.753Z,26.70
2018-07-10T10:23:54.044Z,26.30
2018-07-10T10:28:59.206Z,25.80
2018-07-10T10:39:04.739Z,23.70
2018-07-10T10:44:07.508Z,23.70
2018-07-10T10:49:10.304Z,22.90
2018-07-10T10:54:13.095Z,22.00
2018-07-10T10:59:16.367Z,21.70
2018-07-10T11:04:19.292Z,21.20
2018-07-10T11:09:22.047Z,21.10
2018-07-10T11:14:24.783Z,20.90
2018-07-10T11:19:32.918Z,21.10
2018-07-10T11:24:50.999Z,21.20
2018-07-10T11:29:53.779Z,21.10
2018-07-10T11:34:56.630Z,20.80
2018-07-10T11:39:59.383Z,20.50
2018-07-10T11:45:02.124Z,19.90
2018-07-10T11:50:04.997Z,19.40
2018-07-10T11:55:08.008Z,19.00
2018-07-10T12:00:10.877Z,18.70
2018-07-10T12:05:15.909Z,18.50
2018-07-10T12:10:22.508Z,17.90
2018-07-10T12:15:25.182Z,17.40
2018-07-10T12:20:29.363Z,17.20
2018-07-10T12:25:36.735Z,17.50
2018-07-10T12:30:39.544Z,18.10
2018-07-10T12:35:42.277Z,18.80
2018-07-10T12:40:45.176Z,18.80
2018-07-10T12:45:47.912Z,19.00
2018-07-10T12:50:51.159Z,19.60
2018-07-10T12:55:53.911Z,20.70
2018-07-10T13:00:56.680Z,24.00
2018-07-10T13:05:59.433Z,24.30
2018-07-10T13:11:02.160Z,25.40
2018-07-10T13:16:05.471Z,25.50
2018-07-10T13:21:08.200Z,27.00
2018-07-10T13:26:10.947Z,28.60
2018-07-10T13:31:13.671Z,27.50
2018-07-10T13:41:19.076Z,29.30
2018-07-10T13:46:21.819Z,30.40
2018-07-10T13:51:24.528Z,28.40
2018-07-10T13:56:27.387Z,26.90
2018-07-10T14:01:34.531Z,27.60
2018-07-10T14:06:37.493Z,26.70
2018-07-10T14:11:40.216Z,27.60
2018-07-10T14:16:42.957Z,26.60
2018-07-10T14:21:45.874Z,25.60
2018-07-10T14:26:48.819Z,24.10
2018-07-10T14:31:51.493Z,22.60
2018-07-10T14:36:54.215Z,21.40
2018-07-10T14:41:56.962Z,21.10
2018-07-10T14:46:59.875Z,20.70
2018-07-10T14:52:02.653Z,20.20
2018-07-10T14:57:05.399Z,20.00
2018-07-10T15:02:10.083Z,19.90
2018-07-10T15:07:13.123Z,19.80
2018-07-10T15:12:18.295Z,19.70
2018-07-10T15:17:26.862Z,19.50
2018-07-10T15:22:29.607Z,19.60
2018-07-10T15:27:32.412Z,19.60
2018-07-10T15:32:35.135Z,19.70
2018-07-10T15:37:38.476Z,20.00
2018-07-10T15:42:41.295Z,20.40
2018-07-10T15:47:44.079Z,20.50
2018-07-10T15:52:46.848Z,20.60
2018-07-10T15:57:49.695Z,24.10
2018-07-10T16:02:52.423Z,28.90
2018-07-10T16:08:10.483Z,29.40
2018-07-10T16:13:13.662Z,27.20
2018-07-10T16:18:16.406Z,25.70
2018-07-10T16:23:19.352Z,24.50
2018-07-10T16:28:25.220Z,25.30
2018-07-10T16:33:30.854Z,24.90
2018-07-10T16:38:34.919Z,25.30
2018-07-10T16:43:37.827Z,29.00
2018-07-10T16:48:47.618Z,30.50
2018-07-10T16:53:55.026Z,31.50
2018-07-10T16:58:58.012Z,31.50
2018-07-10T17:04:02.678Z,29.30
2018-07-10T17:09:05.379Z,26.90
2018-07-10T17:14:08.099Z,26.00
2018-07-10T17:19:10.859Z,24.30
2018-07-10T17:24:13.570Z,22.80
2018-07-10T17:29:16.359Z,21.80
2018-07-10T17:34:19.166Z,21.20
2018-07-10T17:39:21.910Z,20.70
2018-07-10T17:44:24.655Z,20.40
2018-07-10T17:49:27.551Z,20.20
2018-07-10T17:54:30.333Z,19.90
2018-07-10T17:59:33.304Z,19.60
2018-07-10T18:04:36.345Z,19.40
2018-07-10T18:09:39.167Z,19.20
2018-07-10T18:14:42.174Z,19.10
2018-07-10T18:19:45.076Z,19.00
2018-07-10T18:29:50.454Z,19.00
2018-07-10T18:34:53.235Z,18.90
2018-07-10T18:39:55.940Z,18.80
2018-07-10T18:45:00.214Z,18.80
2018-07-10T18:50:03.761Z,18.80
2018-07-10T18:55:06.584Z,22.50
2018-07-10T19:00:09.432Z,18.50
2018-07-10T19:05:12.346Z,18.10
2018-07-10T19:10:15.283Z,17.60
2018-07-10T19:15:18.466Z,17.20
2018-07-10T19:20:21.384Z,16.80
2018-07-10T19:25:24.206Z,16.50
2018-07-10T19:30:36.166Z,16.20
2018-07-10T19:35:38.991Z,15.90
2018-07-10T19:40:41.894Z,15.70
2018-07-10T19:45:44.698Z,15.50
2018-07-10T19:50:47.484Z,15.40
2018-07-10T19:55:50.452Z,15.30
2018-07-10T20:00:58.063Z,15.10
2018-07-10T20:06:07.815Z,14.90
2018-07-10T20:11:11.162Z,14.70
2018-07-10T20:16:52.776Z,14.60
2018-07-10T20:22:02.950Z,14.40
2018-07-10T20:27:15.601Z,14.40
2018-07-10T20:32:22.958Z,14.30
2018-07-10T20:42:33.963Z,14.30
2018-07-10T20:47:54.487Z,14.30
2018-07-10T20:54:05.378Z,14.30
2018-07-10T20:59:18.543Z,14.20
2018-07-10T21:04:31.667Z,14.20
2018-07-10T21:10:15.387Z,14.10
2018-07-10T21:15:34.139Z,14.10
2018-07-10T21:20:44.999Z,17.80
2018-07-10T21:30:59.295Z,13.40
2018-07-10T21:36:06.392Z,13.40
2018-07-10T21:41:48.542Z,13.40
2018-07-10T21:46:56.827Z,13.30
2018-07-10T21:51:59.550Z,13.20
2018-07-10T21:57:02.424Z,13.10
2018-07-10T22:02:07.497Z,12.90
2018-07-10T22:07:11.830Z,12.80
2018-07-10T22:12:17.303Z,12.70
2018-07-10T22:17:22.344Z,12.50
2018-07-10T22:22:26.346Z,12.30
2018-07-10T22:27:28.996Z,12.20
2018-07-10T22:32:54.646Z,12.10
2018-07-10T22:37:57.400Z,12.20
2018-07-10T22:43:00.105Z,12.40
2018-07-10T22:48:02.836Z,12.50
2018-07-10T22:53:05.572Z,12.60
2018-07-10T22:58:08.333Z,12.60
2018-07-10T23:03:21.713Z,12.60
2018-07-10T23:08:29.237Z,12.70
2018-07-10T23:13:33.924Z,12.70
2018-07-10T23:18:36.599Z,12.70
2018-07-10T23:23:39.226Z,12.70
2018-07-10T23:28:42.179Z,12.80
2018-07-10T23:33:47.919Z,13.00
2018-07-10T23:39:04.022Z,13.10
2018-07-10T23:44:08.482Z,13.20
2018-07-10T23:49:14.683Z,13.30
2018-07-10T23:54:17.286Z,13.30
2018-07-10T23:59:20.165Z,13.50
